TNO1122 KBHM-KIND
Flight info
| Callsign | TNO1122 |
|---|---|
| Flight time | 1h 31m |
| Altitude | 21000 |
| Route | RHETT |
| Aircraft | DH8B/M-SDFGR/S |
Departure
| Time | 2026-04-15 08:29 |
|---|---|
| Airport | Birmingham-Shuttlesworth International Airport (KBHM) |
Arrival
| Time | 2026-04-15 10:00 |
|---|---|
| Airport | Indianapolis International Airport (KIND) |
| Time | Latitude | Longitude | Altitude | Speed | Heading |
|---|---|---|---|---|---|
| 2026-04-15 08:15 | 33.56082 | -86.75342 | 650 ft | 0 kts | 0° |
| 2026-04-15 08:23 | 33.56078 | -86.75342 | 650 ft | 2 kts | 359° |
| 2026-04-15 08:23 | 33.56061 | -86.75337 | 650 ft | 3 kts | 335° |
| 2026-04-15 08:23 | 33.56046 | -86.75323 | 650 ft | 3 kts | 307° |
| 2026-04-15 08:24 | 33.56037 | -86.75301 | 650 ft | 3 kts | 284° |
| 2026-04-15 08:24 | 33.56032 | -86.75314 | 650 ft | 5 kts | 242° |
| 2026-04-15 08:24 | 33.56008 | -86.75371 | 650 ft | 9 kts | 243° |
| 2026-04-15 08:24 | 33.55975 | -86.75468 | 650 ft | 15 kts | 257° |
| 2026-04-15 08:25 | 33.55993 | -86.75567 | 650 ft | 13 kts | 314° |
| 2026-04-15 08:25 | 33.56051 | -86.75637 | 650 ft | 10 kts | 313° |
| 2026-04-15 08:25 | 33.56084 | -86.75675 | 650 ft | 10 kts | 319° |
| 2026-04-15 08:25 | 33.56140 | -86.75748 | 650 ft | 12 kts | 322° |
| 2026-04-15 08:26 | 33.56213 | -86.75674 | 650 ft | 19 kts | 57° |
| 2026-04-15 08:26 | 33.56288 | -86.75537 | 650 ft | 21 kts | 54° |
| 2026-04-15 08:26 | 33.56372 | -86.75396 | 650 ft | 18 kts | 56° |
| 2026-04-15 08:26 | 33.56451 | -86.75257 | 650 ft | 19 kts | 57° |
| 2026-04-15 08:27 | 33.56531 | -86.75112 | 650 ft | 20 kts | 56° |
| 2026-04-15 08:27 | 33.56592 | -86.75035 | 650 ft | 7 kts | 8° |
| 2026-04-15 08:27 | 33.56662 | -86.75059 | 650 ft | 11 kts | 322° |
| 2026-04-15 08:27 | 33.56648 | -86.75128 | 650 ft | 25 kts | 233° |
| 2026-04-15 08:28 | 33.56367 | -86.75612 | 650 ft | 113 kts | 234° |
| 2026-04-15 08:28 | 33.55828 | -86.76554 | 650 ft | 153 kts | 236° |
| 2026-04-15 08:28 | 33.55201 | -86.77658 | 801 ft | 171 kts | 236° |
| 2026-04-15 08:28 | 33.54622 | -86.78986 | 1051 ft | 185 kts | 253° |
| 2026-04-15 08:29 | 33.54664 | -86.80530 | 1311 ft | 194 kts | 283° |
| 2026-04-15 08:29 | 33.55398 | -86.81907 | 1567 ft | 201 kts | 313° |
| 2026-04-15 08:29 | 33.56627 | -86.82678 | 1825 ft | 203 kts | 343° |
| 2026-04-15 08:29 | 33.58068 | -86.82616 | 2161 ft | 211 kts | 14° |
| 2026-04-15 08:30 | 33.59389 | -86.81915 | 2547 ft | 212 kts | 28° |
| 2026-04-15 08:30 | 33.60647 | -86.81024 | 2926 ft | 214 kts | 32° |
| 2026-04-15 08:30 | 33.61907 | -86.80061 | 3297 ft | 216 kts | 33° |
| 2026-04-15 08:30 | 33.63182 | -86.79071 | 3670 ft | 218 kts | 33° |
| 2026-04-15 08:31 | 33.64470 | -86.78089 | 4050 ft | 220 kts | 32° |
| 2026-04-15 08:31 | 33.65759 | -86.77125 | 4427 ft | 221 kts | 32° |
| 2026-04-15 08:31 | 33.67089 | -86.76160 | 4818 ft | 223 kts | 31° |
| 2026-04-15 08:31 | 33.68445 | -86.75229 | 5195 ft | 225 kts | 28° |
| 2026-04-15 08:32 | 33.69846 | -86.74413 | 5564 ft | 226 kts | 22° |
| 2026-04-15 08:32 | 33.71332 | -86.73761 | 5946 ft | 227 kts | 17° |
| 2026-04-15 08:32 | 33.72861 | -86.73240 | 6326 ft | 228 kts | 13° |
| 2026-04-15 08:32 | 33.74403 | -86.72820 | 6703 ft | 230 kts | 11° |
| 2026-04-15 08:33 | 33.75981 | -86.72465 | 7079 ft | 231 kts | 8° |
| 2026-04-15 08:33 | 33.77581 | -86.72162 | 7455 ft | 233 kts | 7° |
| 2026-04-15 08:33 | 33.79196 | -86.71887 | 7832 ft | 234 kts | 6° |
| 2026-04-15 08:33 | 33.80801 | -86.71624 | 8206 ft | 236 kts | 6° |
| 2026-04-15 08:34 | 33.82437 | -86.71366 | 8580 ft | 237 kts | 6° |
| 2026-04-15 08:34 | 33.84090 | -86.71112 | 8960 ft | 239 kts | 5° |
| 2026-04-15 08:34 | 33.85732 | -86.70864 | 9335 ft | 241 kts | 5° |
| 2026-04-15 08:34 | 33.87411 | -86.70612 | 9717 ft | 242 kts | 5° |
| 2026-04-15 08:35 | 33.89071 | -86.70366 | 10097 ft | 243 kts | 5° |
| 2026-04-15 08:35 | 33.90756 | -86.70121 | 10477 ft | 244 kts | 4° |
| 2026-04-15 08:35 | 33.92458 | -86.69867 | 10858 ft | 245 kts | 4° |
| 2026-04-15 08:35 | 33.94137 | -86.69611 | 11233 ft | 246 kts | 4° |
| 2026-04-15 08:36 | 33.95851 | -86.69350 | 11613 ft | 247 kts | 4° |
| 2026-04-15 08:36 | 33.97541 | -86.69093 | 11987 ft | 248 kts | 4° |
| 2026-04-15 08:36 | 33.99264 | -86.68832 | 12365 ft | 249 kts | 4° |
| 2026-04-15 08:36 | 34.00989 | -86.68571 | 12748 ft | 250 kts | 3° |
| 2026-04-15 08:37 | 34.02702 | -86.68313 | 13123 ft | 250 kts | 3° |
| 2026-04-15 08:37 | 34.04443 | -86.68070 | 13498 ft | 251 kts | 1° |
| 2026-04-15 08:37 | 34.06190 | -86.67883 | 13876 ft | 251 kts | 0° |
| 2026-04-15 08:37 | 34.07934 | -86.67733 | 14251 ft | 251 kts | 359° |
| 2026-04-15 08:38 | 34.09659 | -86.67599 | 14622 ft | 251 kts | 359° |
| 2026-04-15 08:38 | 34.11409 | -86.67473 | 14998 ft | 251 kts | 359° |
| 2026-04-15 08:38 | 34.13150 | -86.67354 | 15374 ft | 250 kts | 358° |
| 2026-04-15 08:38 | 34.14874 | -86.67239 | 15745 ft | 249 kts | 358° |
| 2026-04-15 08:39 | 34.16603 | -86.67125 | 16119 ft | 249 kts | 358° |
| 2026-04-15 08:39 | 34.18336 | -86.67013 | 16495 ft | 248 kts | 358° |
| 2026-04-15 08:39 | 34.20042 | -86.66902 | 16865 ft | 247 kts | 358° |
| 2026-04-15 08:39 | 34.21761 | -86.66792 | 17240 ft | 246 kts | 357° |
| 2026-04-15 08:40 | 34.23475 | -86.66682 | 17615 ft | 245 kts | 357° |
| 2026-04-15 08:40 | 34.25179 | -86.66574 | 17989 ft | 244 kts | 357° |
| 2026-04-15 08:40 | 34.26871 | -86.66466 | 18362 ft | 243 kts | 357° |
| 2026-04-15 08:40 | 34.28546 | -86.66360 | 18733 ft | 242 kts | 357° |
| 2026-04-15 08:41 | 34.30230 | -86.66254 | 19107 ft | 241 kts | 357° |
| 2026-04-15 08:41 | 34.31905 | -86.66147 | 19480 ft | 241 kts | 357° |
| 2026-04-15 08:41 | 34.33573 | -86.66042 | 19853 ft | 239 kts | 356° |
| 2026-04-15 08:41 | 34.35231 | -86.65936 | 20225 ft | 237 kts | 356° |
| 2026-04-15 08:42 | 34.36852 | -86.65833 | 20593 ft | 235 kts | 356° |
| 2026-04-15 08:42 | 34.38486 | -86.65730 | 20879 ft | 237 kts | 356° |
| 2026-04-15 08:42 | 34.40166 | -86.65628 | 20966 ft | 246 kts | 356° |
| 2026-04-15 08:42 | 34.41909 | -86.65525 | 20976 ft | 255 kts | 357° |
| 2026-04-15 08:43 | 34.43718 | -86.65417 | 20973 ft | 263 kts | 357° |
| 2026-04-15 08:43 | 34.45553 | -86.65305 | 20963 ft | 268 kts | 357° |
| 2026-04-15 08:43 | 34.47427 | -86.65187 | 20956 ft | 270 kts | 357° |
| 2026-04-15 08:43 | 34.49318 | -86.65065 | 20953 ft | 272 kts | 357° |
| 2026-04-15 08:44 | 34.51197 | -86.64942 | 20951 ft | 273 kts | 357° |
| 2026-04-15 08:44 | 34.53102 | -86.64819 | 20949 ft | 274 kts | 357° |
| 2026-04-15 08:44 | 34.55016 | -86.64694 | 20948 ft | 274 kts | 357° |
| 2026-04-15 08:44 | 34.56899 | -86.64572 | 20946 ft | 274 kts | 357° |
| 2026-04-15 08:45 | 34.58808 | -86.64448 | 20945 ft | 274 kts | 357° |
| 2026-04-15 08:45 | 34.60709 | -86.64325 | 21002 ft | 271 kts | 357° |
| 2026-04-15 08:45 | 34.62570 | -86.64201 | 21092 ft | 265 kts | 357° |
| 2026-04-15 08:45 | 34.64386 | -86.64081 | 21128 ft | 262 kts | 357° |
| 2026-04-15 08:46 | 34.66209 | -86.63962 | 21138 ft | 260 kts | 357° |
| 2026-04-15 08:46 | 34.67997 | -86.63847 | 21140 ft | 259 kts | 357° |
| 2026-04-15 08:46 | 34.69797 | -86.63732 | 21140 ft | 258 kts | 356° |
| 2026-04-15 08:46 | 34.71577 | -86.63619 | 21140 ft | 257 kts | 356° |
| 2026-04-15 08:47 | 34.73368 | -86.63505 | 21142 ft | 256 kts | 356° |
| 2026-04-15 08:47 | 34.75155 | -86.63391 | 21145 ft | 255 kts | 356° |
| 2026-04-15 08:47 | 34.76912 | -86.63280 | 21147 ft | 255 kts | 356° |
| 2026-04-15 08:47 | 34.78687 | -86.63167 | 21154 ft | 255 kts | 356° |
| 2026-04-15 08:48 | 34.80461 | -86.63054 | 21156 ft | 255 kts | 356° |
| 2026-04-15 08:48 | 34.82222 | -86.62942 | 21159 ft | 254 kts | 356° |
| 2026-04-15 08:48 | 34.84000 | -86.62827 | 21162 ft | 255 kts | 356° |
| 2026-04-15 08:48 | 34.85756 | -86.62715 | 21164 ft | 255 kts | 356° |
| 2026-04-15 08:49 | 34.87531 | -86.62602 | 21165 ft | 255 kts | 356° |
| 2026-04-15 08:49 | 34.89313 | -86.62488 | 21166 ft | 255 kts | 356° |
| 2026-04-15 08:49 | 34.91081 | -86.62374 | 21166 ft | 255 kts | 356° |
| 2026-04-15 08:49 | 34.92841 | -86.62262 | 21166 ft | 255 kts | 356° |
| 2026-04-15 08:50 | 34.94622 | -86.62147 | 21166 ft | 255 kts | 356° |
| 2026-04-15 08:50 | 34.96382 | -86.62034 | 21166 ft | 255 kts | 356° |
| 2026-04-15 08:50 | 34.98159 | -86.61919 | 21166 ft | 255 kts | 356° |
| 2026-04-15 08:50 | 34.99941 | -86.61805 | 21166 ft | 255 kts | 356° |
| 2026-04-15 08:51 | 35.01694 | -86.61692 | 21167 ft | 254 kts | 356° |
| 2026-04-15 08:51 | 35.03469 | -86.61577 | 21167 ft | 254 kts | 356° |
| 2026-04-15 08:51 | 35.05239 | -86.61463 | 21168 ft | 254 kts | 356° |
| 2026-04-15 08:51 | 35.06987 | -86.61350 | 21170 ft | 254 kts | 356° |
| 2026-04-15 08:52 | 35.08755 | -86.61236 | 21176 ft | 253 kts | 356° |
| 2026-04-15 08:52 | 35.10524 | -86.61121 | 21179 ft | 253 kts | 356° |
| 2026-04-15 08:52 | 35.12264 | -86.61008 | 21178 ft | 253 kts | 356° |
| 2026-04-15 08:52 | 35.14032 | -86.60894 | 21176 ft | 253 kts | 356° |
| 2026-04-15 08:53 | 35.15795 | -86.60780 | 21175 ft | 253 kts | 356° |
| 2026-04-15 08:53 | 35.17556 | -86.60666 | 21173 ft | 253 kts | 356° |
| 2026-04-15 08:53 | 35.19296 | -86.60554 | 21170 ft | 253 kts | 356° |
| 2026-04-15 08:53 | 35.21065 | -86.60440 | 21168 ft | 253 kts | 356° |
| 2026-04-15 08:54 | 35.22837 | -86.60325 | 21164 ft | 253 kts | 356° |
| 2026-04-15 08:54 | 35.24576 | -86.60212 | 21160 ft | 253 kts | 356° |
| 2026-04-15 08:54 | 35.26340 | -86.60098 | 21157 ft | 253 kts | 356° |
| 2026-04-15 08:54 | 35.28086 | -86.59984 | 21154 ft | 253 kts | 356° |
| 2026-04-15 08:55 | 35.29846 | -86.59870 | 21151 ft | 253 kts | 356° |
| 2026-04-15 08:55 | 35.31613 | -86.59755 | 21148 ft | 253 kts | 356° |
| 2026-04-15 08:55 | 35.33379 | -86.59640 | 21144 ft | 253 kts | 356° |
| 2026-04-15 08:55 | 35.35116 | -86.59528 | 21142 ft | 253 kts | 356° |
| 2026-04-15 08:56 | 35.36875 | -86.59414 | 21139 ft | 253 kts | 356° |
| 2026-04-15 08:56 | 35.38634 | -86.59299 | 21139 ft | 252 kts | 356° |
| 2026-04-15 08:56 | 35.40388 | -86.59185 | 21136 ft | 252 kts | 356° |
| 2026-04-15 08:56 | 35.42144 | -86.59071 | 21133 ft | 252 kts | 356° |
| 2026-04-15 08:57 | 35.43882 | -86.58958 | 21131 ft | 253 kts | 356° |
| 2026-04-15 08:57 | 35.45646 | -86.58844 | 21129 ft | 253 kts | 356° |
| 2026-04-15 08:57 | 35.47412 | -86.58729 | 21128 ft | 253 kts | 356° |
| 2026-04-15 08:57 | 35.49171 | -86.58614 | 21127 ft | 253 kts | 356° |
| 2026-04-15 08:58 | 35.50909 | -86.58500 | 21126 ft | 252 kts | 356° |
| 2026-04-15 08:58 | 35.54427 | -86.58273 | 21124 ft | 252 kts | 356° |
| 2026-04-15 08:58 | 35.56181 | -86.58158 | 21123 ft | 252 kts | 356° |
| 2026-04-15 08:59 | 35.57910 | -86.58044 | 21122 ft | 251 kts | 356° |
| 2026-04-15 08:59 | 35.59657 | -86.57929 | 21121 ft | 251 kts | 356° |
| 2026-04-15 08:59 | 35.61404 | -86.57815 | 21120 ft | 251 kts | 355° |
| 2026-04-15 08:59 | 35.63155 | -86.57701 | 21120 ft | 251 kts | 355° |
| 2026-04-15 09:00 | 35.64901 | -86.57587 | 21119 ft | 251 kts | 355° |
| 2026-04-15 09:00 | 35.66653 | -86.57473 | 21119 ft | 251 kts | 356° |
| 2026-04-15 09:00 | 35.68402 | -86.57358 | 21119 ft | 252 kts | 356° |
| 2026-04-15 09:00 | 35.70149 | -86.57243 | 21118 ft | 252 kts | 356° |
| 2026-04-15 09:01 | 35.71898 | -86.57128 | 21117 ft | 252 kts | 356° |
| 2026-04-15 09:01 | 35.73631 | -86.57015 | 21116 ft | 252 kts | 356° |
| 2026-04-15 09:01 | 35.75380 | -86.56900 | 21116 ft | 252 kts | 356° |
| 2026-04-15 09:01 | 35.77132 | -86.56784 | 21115 ft | 252 kts | 356° |
| 2026-04-15 09:02 | 35.78882 | -86.56669 | 21115 ft | 252 kts | 356° |
| 2026-04-15 09:02 | 35.80633 | -86.56554 | 21114 ft | 252 kts | 356° |
| 2026-04-15 09:02 | 35.82382 | -86.56439 | 21114 ft | 252 kts | 356° |
| 2026-04-15 09:02 | 35.84130 | -86.56324 | 21113 ft | 252 kts | 356° |
| 2026-04-15 09:03 | 35.85880 | -86.56208 | 21118 ft | 251 kts | 356° |
| 2026-04-15 09:03 | 35.87630 | -86.56093 | 21122 ft | 251 kts | 356° |
| 2026-04-15 09:03 | 35.89379 | -86.55978 | 21123 ft | 251 kts | 356° |
| 2026-04-15 09:03 | 35.91129 | -86.55863 | 21121 ft | 252 kts | 355° |
| 2026-04-15 09:04 | 35.92880 | -86.55747 | 21121 ft | 252 kts | 356° |
| 2026-04-15 09:04 | 35.94605 | -86.55633 | 21122 ft | 251 kts | 356° |
| 2026-04-15 09:04 | 35.96349 | -86.55518 | 21123 ft | 251 kts | 356° |
| 2026-04-15 09:04 | 35.98097 | -86.55403 | 21125 ft | 251 kts | 356° |
| 2026-04-15 09:05 | 35.99841 | -86.55287 | 21126 ft | 251 kts | 356° |
| 2026-04-15 09:05 | 36.01000 | -86.55210 | 21127 ft | 251 kts | 355° |
| 2026-04-15 09:05 | 36.02744 | -86.55094 | 21128 ft | 251 kts | 355° |
| 2026-04-15 09:05 | 36.04489 | -86.54979 | 21128 ft | 251 kts | 355° |
| 2026-04-15 09:06 | 36.06232 | -86.54864 | 21126 ft | 251 kts | 355° |
| 2026-04-15 09:06 | 36.07975 | -86.54749 | 21124 ft | 251 kts | 355° |
| 2026-04-15 09:06 | 36.09722 | -86.54634 | 21121 ft | 251 kts | 355° |
| 2026-04-15 09:06 | 36.11468 | -86.54518 | 21120 ft | 252 kts | 355° |
| 2026-04-15 09:07 | 36.13216 | -86.54403 | 21122 ft | 252 kts | 355° |
| 2026-04-15 09:07 | 36.14967 | -86.54286 | 21122 ft | 252 kts | 355° |
| 2026-04-15 09:07 | 36.16721 | -86.54170 | 21121 ft | 252 kts | 355° |
| 2026-04-15 09:07 | 36.18477 | -86.54053 | 21119 ft | 252 kts | 355° |
| 2026-04-15 09:08 | 36.20224 | -86.53937 | 21120 ft | 252 kts | 355° |
| 2026-04-15 09:08 | 36.21976 | -86.53821 | 21121 ft | 251 kts | 355° |
| 2026-04-15 09:08 | 36.23720 | -86.53705 | 21122 ft | 251 kts | 355° |
| 2026-04-15 09:08 | 36.25464 | -86.53589 | 21120 ft | 251 kts | 355° |
| 2026-04-15 09:09 | 36.27188 | -86.53474 | 21112 ft | 251 kts | 355° |
| 2026-04-15 09:09 | 36.28934 | -86.53358 | 21108 ft | 251 kts | 355° |
| 2026-04-15 09:09 | 36.30681 | -86.53242 | 21106 ft | 251 kts | 355° |
| 2026-04-15 09:09 | 36.32429 | -86.53126 | 21105 ft | 251 kts | 355° |
| 2026-04-15 09:10 | 36.34179 | -86.53009 | 21105 ft | 251 kts | 355° |
| 2026-04-15 09:10 | 36.35912 | -86.52894 | 21104 ft | 251 kts | 355° |
| 2026-04-15 09:10 | 36.37660 | -86.52777 | 21104 ft | 251 kts | 355° |
| 2026-04-15 09:10 | 36.39411 | -86.52661 | 21103 ft | 251 kts | 355° |
| 2026-04-15 09:11 | 36.41138 | -86.52545 | 21103 ft | 251 kts | 355° |
| 2026-04-15 09:11 | 36.42885 | -86.52429 | 21102 ft | 251 kts | 355° |
| 2026-04-15 09:11 | 36.44638 | -86.52312 | 21102 ft | 251 kts | 355° |
| 2026-04-15 09:11 | 36.46393 | -86.52194 | 21101 ft | 251 kts | 355° |
| 2026-04-15 09:12 | 36.48120 | -86.52079 | 21100 ft | 251 kts | 355° |
| 2026-04-15 09:12 | 36.49872 | -86.51961 | 21100 ft | 251 kts | 355° |
| 2026-04-15 09:12 | 36.51608 | -86.51845 | 21100 ft | 251 kts | 355° |
| 2026-04-15 09:12 | 36.53368 | -86.51728 | 21100 ft | 252 kts | 355° |
| 2026-04-15 09:13 | 36.55128 | -86.51610 | 21100 ft | 252 kts | 355° |
| 2026-04-15 09:13 | 36.56867 | -86.51494 | 21100 ft | 252 kts | 355° |
| 2026-04-15 09:13 | 36.58625 | -86.51376 | 21099 ft | 252 kts | 355° |
| 2026-04-15 09:13 | 36.60388 | -86.51258 | 21099 ft | 253 kts | 355° |
| 2026-04-15 09:14 | 36.62125 | -86.51140 | 21099 ft | 253 kts | 355° |
| 2026-04-15 09:14 | 36.63888 | -86.51022 | 21099 ft | 253 kts | 355° |
| 2026-04-15 09:14 | 36.65658 | -86.50903 | 21099 ft | 253 kts | 355° |
| 2026-04-15 09:14 | 36.67400 | -86.50786 | 21099 ft | 253 kts | 355° |
| 2026-04-15 09:15 | 36.69166 | -86.50667 | 21098 ft | 254 kts | 355° |
| 2026-04-15 09:15 | 36.70932 | -86.50548 | 21098 ft | 254 kts | 355° |
| 2026-04-15 09:15 | 36.72695 | -86.50429 | 21100 ft | 253 kts | 355° |
| 2026-04-15 09:15 | 36.74456 | -86.50309 | 21098 ft | 253 kts | 355° |
| 2026-04-15 09:16 | 36.76215 | -86.50191 | 21097 ft | 253 kts | 355° |
| 2026-04-15 09:16 | 36.77978 | -86.50071 | 21098 ft | 253 kts | 355° |
| 2026-04-15 09:16 | 36.79742 | -86.49952 | 21096 ft | 254 kts | 355° |
| 2026-04-15 09:16 | 36.81500 | -86.49834 | 21095 ft | 253 kts | 355° |
| 2026-04-15 09:17 | 36.83257 | -86.49714 | 21094 ft | 253 kts | 355° |
| 2026-04-15 09:17 | 36.85014 | -86.49596 | 21093 ft | 253 kts | 355° |
| 2026-04-15 09:17 | 36.86773 | -86.49477 | 21093 ft | 253 kts | 355° |
| 2026-04-15 09:17 | 36.88504 | -86.49361 | 21091 ft | 252 kts | 355° |
| 2026-04-15 09:18 | 36.90280 | -86.49241 | 21090 ft | 252 kts | 355° |
| 2026-04-15 09:18 | 36.92010 | -86.49124 | 21092 ft | 252 kts | 355° |
| 2026-04-15 09:18 | 36.93761 | -86.49004 | 21092 ft | 252 kts | 355° |
| 2026-04-15 09:18 | 36.95512 | -86.48885 | 21091 ft | 252 kts | 355° |
| 2026-04-15 09:19 | 36.97265 | -86.48767 | 21090 ft | 252 kts | 355° |
| 2026-04-15 09:19 | 36.99023 | -86.48648 | 21093 ft | 252 kts | 355° |
| 2026-04-15 09:19 | 37.00775 | -86.48529 | 21091 ft | 253 kts | 355° |
| 2026-04-15 09:19 | 37.02532 | -86.48410 | 21090 ft | 253 kts | 355° |
| 2026-04-15 09:20 | 37.04289 | -86.48292 | 21091 ft | 252 kts | 355° |
| 2026-04-15 09:20 | 37.06045 | -86.48174 | 21090 ft | 253 kts | 355° |
| 2026-04-15 09:20 | 37.07800 | -86.48055 | 21089 ft | 253 kts | 355° |
| 2026-04-15 09:20 | 37.09563 | -86.47936 | 21087 ft | 253 kts | 355° |
| 2026-04-15 09:21 | 37.11317 | -86.47816 | 21089 ft | 252 kts | 355° |
| 2026-04-15 09:21 | 37.13070 | -86.47697 | 21088 ft | 252 kts | 355° |
| 2026-04-15 09:21 | 37.14822 | -86.47578 | 21087 ft | 252 kts | 355° |
| 2026-04-15 09:21 | 37.16575 | -86.47459 | 21086 ft | 252 kts | 355° |
| 2026-04-15 09:22 | 37.18321 | -86.47339 | 21085 ft | 251 kts | 355° |
| 2026-04-15 09:22 | 37.20072 | -86.47219 | 21083 ft | 252 kts | 354° |
| 2026-04-15 09:22 | 37.21829 | -86.47101 | 21078 ft | 255 kts | 355° |
| 2026-04-15 09:22 | 37.23590 | -86.46984 | 21082 ft | 257 kts | 355° |
| 2026-04-15 09:23 | 37.25388 | -86.46864 | 21083 ft | 259 kts | 355° |
| 2026-04-15 09:23 | 37.27194 | -86.46743 | 21082 ft | 261 kts | 355° |
| 2026-04-15 09:23 | 37.29012 | -86.46619 | 21081 ft | 262 kts | 355° |
| 2026-04-15 09:23 | 37.30840 | -86.46495 | 21080 ft | 263 kts | 355° |
| 2026-04-15 09:24 | 37.32675 | -86.46369 | 21078 ft | 264 kts | 355° |
| 2026-04-15 09:24 | 37.34511 | -86.46242 | 21077 ft | 264 kts | 355° |
| 2026-04-15 09:24 | 37.36350 | -86.46115 | 21077 ft | 265 kts | 355° |
| 2026-04-15 09:24 | 37.38172 | -86.45990 | 21076 ft | 265 kts | 355° |
| 2026-04-15 09:25 | 37.40015 | -86.45863 | 21075 ft | 265 kts | 355° |
| 2026-04-15 09:25 | 37.41861 | -86.45736 | 21073 ft | 266 kts | 355° |
| 2026-04-15 09:25 | 37.43710 | -86.45609 | 21072 ft | 266 kts | 355° |
| 2026-04-15 09:25 | 37.45560 | -86.45481 | 21070 ft | 267 kts | 355° |
| 2026-04-15 09:26 | 37.47416 | -86.45354 | 21070 ft | 267 kts | 355° |
| 2026-04-15 09:26 | 37.49273 | -86.45226 | 21067 ft | 268 kts | 355° |
| 2026-04-15 09:26 | 37.51130 | -86.45098 | 21070 ft | 268 kts | 355° |
| 2026-04-15 09:26 | 37.52992 | -86.44970 | 21067 ft | 268 kts | 355° |
| 2026-04-15 09:27 | 37.54851 | -86.44842 | 21067 ft | 268 kts | 355° |
| 2026-04-15 09:27 | 37.56714 | -86.44713 | 21066 ft | 268 kts | 355° |
| 2026-04-15 09:27 | 37.58580 | -86.44585 | 21062 ft | 268 kts | 355° |
| 2026-04-15 09:27 | 37.60442 | -86.44456 | 21065 ft | 268 kts | 355° |
| 2026-04-15 09:28 | 37.62300 | -86.44328 | 21063 ft | 268 kts | 355° |
| 2026-04-15 09:28 | 37.64163 | -86.44199 | 21065 ft | 268 kts | 355° |
| 2026-04-15 09:28 | 37.66003 | -86.44072 | 21064 ft | 268 kts | 355° |
| 2026-04-15 09:28 | 37.67872 | -86.43943 | 21063 ft | 269 kts | 355° |
| 2026-04-15 09:29 | 37.69743 | -86.43815 | 21054 ft | 269 kts | 355° |
| 2026-04-15 09:29 | 37.71613 | -86.43686 | 21050 ft | 269 kts | 355° |
| 2026-04-15 09:29 | 37.73484 | -86.43556 | 21046 ft | 269 kts | 355° |
| 2026-04-15 09:29 | 37.75354 | -86.43427 | 21044 ft | 269 kts | 355° |
| 2026-04-15 09:30 | 37.77222 | -86.43297 | 21042 ft | 269 kts | 355° |
| 2026-04-15 09:30 | 37.79094 | -86.43168 | 21041 ft | 269 kts | 355° |
| 2026-04-15 09:30 | 37.80966 | -86.43038 | 21040 ft | 269 kts | 355° |
| 2026-04-15 09:30 | 37.82838 | -86.42908 | 21041 ft | 269 kts | 355° |
| 2026-04-15 09:31 | 37.84704 | -86.42778 | 21041 ft | 269 kts | 355° |
| 2026-04-15 09:31 | 37.86575 | -86.42648 | 21040 ft | 269 kts | 355° |
| 2026-04-15 09:31 | 37.88445 | -86.42518 | 21041 ft | 269 kts | 355° |
| 2026-04-15 09:31 | 37.90314 | -86.42388 | 21038 ft | 269 kts | 355° |
| 2026-04-15 09:32 | 37.92165 | -86.42260 | 21034 ft | 269 kts | 355° |
| 2026-04-15 09:32 | 37.94040 | -86.42130 | 21033 ft | 269 kts | 355° |
| 2026-04-15 09:32 | 37.95913 | -86.42000 | 21032 ft | 269 kts | 355° |
| 2026-04-15 09:32 | 37.97783 | -86.41872 | 21032 ft | 269 kts | 355° |
| 2026-04-15 09:33 | 37.99658 | -86.41744 | 21032 ft | 270 kts | 355° |
| 2026-04-15 09:33 | 38.01531 | -86.41613 | 21031 ft | 270 kts | 356° |
| 2026-04-15 09:33 | 38.03406 | -86.41483 | 21032 ft | 270 kts | 356° |
| 2026-04-15 09:33 | 38.05283 | -86.41350 | 21033 ft | 270 kts | 356° |
| 2026-04-15 09:34 | 38.07160 | -86.41215 | 21034 ft | 270 kts | 356° |
| 2026-04-15 09:34 | 38.09035 | -86.41083 | 21033 ft | 270 kts | 356° |
| 2026-04-15 09:34 | 38.10911 | -86.40947 | 21037 ft | 270 kts | 356° |
| 2026-04-15 09:34 | 38.12767 | -86.40815 | 21036 ft | 270 kts | 356° |
| 2026-04-15 09:35 | 38.14647 | -86.40686 | 21031 ft | 271 kts | 356° |
| 2026-04-15 09:35 | 38.16528 | -86.40559 | 21031 ft | 270 kts | 356° |
| 2026-04-15 09:35 | 38.18409 | -86.40430 | 21032 ft | 270 kts | 356° |
| 2026-04-15 09:35 | 38.20290 | -86.40301 | 21031 ft | 270 kts | 356° |
| 2026-04-15 09:36 | 38.22170 | -86.40173 | 21030 ft | 270 kts | 356° |
| 2026-04-15 09:36 | 38.24056 | -86.40041 | 21030 ft | 271 kts | 356° |
| 2026-04-15 09:36 | 38.25917 | -86.39910 | 21030 ft | 271 kts | 356° |
| 2026-04-15 09:36 | 38.27802 | -86.39777 | 21029 ft | 271 kts | 356° |
| 2026-04-15 09:37 | 38.29690 | -86.39647 | 21029 ft | 271 kts | 355° |
| 2026-04-15 09:37 | 38.31578 | -86.39522 | 21030 ft | 272 kts | 356° |
| 2026-04-15 09:37 | 38.33471 | -86.39392 | 21030 ft | 272 kts | 356° |
| 2026-04-15 09:37 | 38.35362 | -86.39263 | 21028 ft | 272 kts | 355° |
| 2026-04-15 09:38 | 38.37259 | -86.39128 | 21029 ft | 272 kts | 356° |
| 2026-04-15 09:38 | 38.39150 | -86.38995 | 21028 ft | 272 kts | 355° |
| 2026-04-15 09:38 | 38.41041 | -86.38867 | 21027 ft | 272 kts | 355° |
| 2026-04-15 09:38 | 38.42932 | -86.38733 | 21027 ft | 272 kts | 356° |
| 2026-04-15 09:39 | 38.44824 | -86.38597 | 21027 ft | 272 kts | 356° |
| 2026-04-15 09:39 | 38.46714 | -86.38459 | 21028 ft | 272 kts | 356° |
| 2026-04-15 09:39 | 38.48608 | -86.38321 | 21028 ft | 272 kts | 356° |
| 2026-04-15 09:39 | 38.50474 | -86.38185 | 21028 ft | 272 kts | 356° |
| 2026-04-15 09:40 | 38.52368 | -86.38050 | 21025 ft | 272 kts | 356° |
| 2026-04-15 09:40 | 38.54261 | -86.37915 | 21023 ft | 272 kts | 356° |
| 2026-04-15 09:40 | 38.56146 | -86.37780 | 21022 ft | 271 kts | 356° |
| 2026-04-15 09:40 | 38.58031 | -86.37644 | 21023 ft | 271 kts | 356° |
| 2026-04-15 09:41 | 38.59918 | -86.37508 | 21021 ft | 271 kts | 355° |
| 2026-04-15 09:41 | 38.61801 | -86.37373 | 21019 ft | 271 kts | 355° |
| 2026-04-15 09:41 | 38.63686 | -86.37237 | 21020 ft | 271 kts | 355° |
| 2026-04-15 09:41 | 38.65567 | -86.37103 | 21018 ft | 271 kts | 355° |
| 2026-04-15 09:42 | 38.67449 | -86.36970 | 21017 ft | 271 kts | 355° |
| 2026-04-15 09:42 | 38.69304 | -86.36837 | 21016 ft | 271 kts | 355° |
| 2026-04-15 09:42 | 38.71185 | -86.36704 | 21014 ft | 271 kts | 355° |
| 2026-04-15 09:42 | 38.73066 | -86.36570 | 21013 ft | 270 kts | 355° |
| 2026-04-15 09:43 | 38.74913 | -86.36434 | 20888 ft | 260 kts | 355° |
| 2026-04-15 09:43 | 38.76727 | -86.36307 | 20546 ft | 260 kts | 354° |
| 2026-04-15 09:43 | 38.78514 | -86.36361 | 20162 ft | 260 kts | 348° |
| 2026-04-15 09:43 | 38.80334 | -86.36548 | 19764 ft | 262 kts | 346° |
| 2026-04-15 09:44 | 38.82157 | -86.36782 | 19367 ft | 264 kts | 346° |
| 2026-04-15 09:44 | 38.84000 | -86.37041 | 18967 ft | 266 kts | 346° |
| 2026-04-15 09:44 | 38.85818 | -86.37308 | 18574 ft | 267 kts | 346° |
| 2026-04-15 09:44 | 38.87685 | -86.37590 | 18172 ft | 269 kts | 346° |
| 2026-04-15 09:45 | 38.89554 | -86.37880 | 17772 ft | 270 kts | 345° |
| 2026-04-15 09:45 | 38.91404 | -86.38168 | 17377 ft | 271 kts | 346° |
| 2026-04-15 09:45 | 38.93288 | -86.38465 | 16974 ft | 270 kts | 346° |
| 2026-04-15 09:45 | 38.94525 | -86.38660 | 16709 ft | 270 kts | 346° |
| 2026-04-15 09:46 | 38.96997 | -86.39056 | 16178 ft | 269 kts | 346° |
| 2026-04-15 09:46 | 38.98860 | -86.39356 | 15777 ft | 269 kts | 346° |
| 2026-04-15 09:46 | 39.00690 | -86.39694 | 15381 ft | 267 kts | 343° |
| 2026-04-15 09:46 | 39.02526 | -86.40106 | 14980 ft | 266 kts | 342° |
| 2026-04-15 09:47 | 39.04348 | -86.40551 | 14581 ft | 266 kts | 341° |
| 2026-04-15 09:47 | 39.06142 | -86.41008 | 14185 ft | 266 kts | 341° |
| 2026-04-15 09:47 | 39.07965 | -86.41469 | 13784 ft | 265 kts | 341° |
| 2026-04-15 09:47 | 39.09776 | -86.41930 | 13381 ft | 263 kts | 341° |
| 2026-04-15 09:48 | 39.11553 | -86.42384 | 12984 ft | 261 kts | 341° |
| 2026-04-15 09:48 | 39.13335 | -86.42845 | 12581 ft | 259 kts | 341° |
| 2026-04-15 09:48 | 39.15093 | -86.43295 | 12182 ft | 257 kts | 341° |
| 2026-04-15 09:48 | 39.16854 | -86.43743 | 11781 ft | 256 kts | 341° |
| 2026-04-15 09:49 | 39.18573 | -86.44185 | 11386 ft | 254 kts | 341° |
| 2026-04-15 09:49 | 39.20303 | -86.44632 | 10986 ft | 252 kts | 341° |
| 2026-04-15 09:49 | 39.22013 | -86.45072 | 10582 ft | 245 kts | 341° |
| 2026-04-15 09:49 | 39.23651 | -86.45489 | 10185 ft | 239 kts | 341° |
| 2026-04-15 09:50 | 39.24747 | -86.45768 | 9911 ft | 235 kts | 341° |
| 2026-04-15 09:50 | 39.26806 | -86.46470 | 9382 ft | 226 kts | 334° |
| 2026-04-15 09:50 | 39.28265 | -86.47189 | 8986 ft | 222 kts | 331° |
| 2026-04-15 09:50 | 39.29663 | -86.47942 | 8592 ft | 219 kts | 330° |
| 2026-04-15 09:51 | 39.30591 | -86.48448 | 8324 ft | 218 kts | 330° |
| 2026-04-15 09:51 | 39.32457 | -86.49473 | 7909 ft | 217 kts | 329° |
| 2026-04-15 09:51 | 39.33848 | -86.50238 | 7636 ft | 218 kts | 329° |
| 2026-04-15 09:51 | 39.35232 | -86.50998 | 7361 ft | 217 kts | 329° |
| 2026-04-15 09:52 | 39.36156 | -86.51509 | 7175 ft | 216 kts | 329° |
| 2026-04-15 09:52 | 39.37992 | -86.52510 | 6813 ft | 215 kts | 329° |
| 2026-04-15 09:52 | 39.39374 | -86.53260 | 6543 ft | 215 kts | 329° |
| 2026-04-15 09:52 | 39.40287 | -86.53753 | 6369 ft | 214 kts | 329° |
| 2026-04-15 09:53 | 39.41661 | -86.54504 | 6090 ft | 213 kts | 329° |
| 2026-04-15 09:53 | 39.43031 | -86.55245 | 5812 ft | 212 kts | 329° |
| 2026-04-15 09:53 | 39.44386 | -86.55969 | 5543 ft | 212 kts | 330° |
| 2026-04-15 09:53 | 39.45754 | -86.56707 | 5271 ft | 212 kts | 329° |
| 2026-04-15 09:54 | 39.47108 | -86.57441 | 5105 ft | 207 kts | 330° |
| 2026-04-15 09:54 | 39.48518 | -86.57821 | 4954 ft | 214 kts | 354° |
| 2026-04-15 09:54 | 39.49919 | -86.57267 | 5015 ft | 207 kts | 23° |
| 2026-04-15 09:54 | 39.50947 | -86.55955 | 5009 ft | 214 kts | 50° |
| 2026-04-15 09:55 | 39.51763 | -86.54298 | 5003 ft | 219 kts | 57° |
| 2026-04-15 09:55 | 39.52543 | -86.52612 | 4991 ft | 221 kts | 56° |
| 2026-04-15 09:55 | 39.53416 | -86.50955 | 4985 ft | 220 kts | 50° |
| 2026-04-15 09:55 | 39.54388 | -86.49455 | 4984 ft | 218 kts | 43° |
| 2026-04-15 09:56 | 39.55494 | -86.48085 | 4896 ft | 221 kts | 37° |
| 2026-04-15 09:56 | 39.56708 | -86.46807 | 4677 ft | 227 kts | 33° |
| 2026-04-15 09:56 | 39.59255 | -86.44274 | 3945 ft | 233 kts | 36° |
| 2026-04-15 09:57 | 39.60469 | -86.42905 | 3518 ft | 225 kts | 40° |
| 2026-04-15 09:57 | 39.61552 | -86.41527 | 3137 ft | 215 kts | 44° |
| 2026-04-15 09:57 | 39.62508 | -86.40189 | 2889 ft | 191 kts | 46° |
| 2026-04-15 09:57 | 39.63369 | -86.38977 | 2586 ft | 176 kts | 46° |
| 2026-04-15 09:58 | 39.64166 | -86.37886 | 2368 ft | 161 kts | 44° |
| 2026-04-15 09:58 | 39.64964 | -86.36846 | 2172 ft | 163 kts | 43° |
| 2026-04-15 09:58 | 39.65786 | -86.35813 | 2004 ft | 164 kts | 43° |
| 2026-04-15 09:58 | 39.66605 | -86.34786 | 1790 ft | 167 kts | 42° |
| 2026-04-15 09:59 | 39.67435 | -86.33751 | 1570 ft | 166 kts | 42° |
| 2026-04-15 09:59 | 39.68260 | -86.32686 | 1347 ft | 166 kts | 44° |
| 2026-04-15 09:59 | 39.69088 | -86.31648 | 1118 ft | 165 kts | 44° |
| 2026-04-15 09:59 | 39.69887 | -86.30592 | 923 ft | 159 kts | 42° |
| 2026-04-15 10:00 | 39.70616 | -86.29696 | 803 ft | 124 kts | 42° |
| 2026-04-15 10:00 | 39.71117 | -86.29028 | 803 ft | 85 kts | 45° |
| 2026-04-15 10:00 | 39.71472 | -86.28597 | 803 ft | 48 kts | 44° |
| 2026-04-15 10:00 | 39.71636 | -86.28387 | 803 ft | 19 kts | 44° |
| 2026-04-15 10:01 | 39.71695 | -86.28282 | 803 ft | 18 kts | 104° |
| 2026-04-15 10:01 | 39.71648 | -86.28207 | 803 ft | 9 kts | 178° |
| 2026-04-15 10:01 | 39.71598 | -86.28246 | 803 ft | 8 kts | 226° |
| 2026-04-15 10:01 | 39.71554 | -86.28269 | 803 ft | 4 kts | 143° |
| 2026-04-15 10:02 | 39.71536 | -86.28168 | 803 ft | 15 kts | 77° |
| 2026-04-15 10:02 | 39.71491 | -86.28042 | 803 ft | 15 kts | 136° |
| 2026-04-15 10:02 | 39.71449 | -86.27990 | 803 ft | 2 kts | 136° |
| 2026-04-15 10:02 | 39.71448 | -86.27989 | 803 ft | 0 kts | 136° |